Hauptseite
METAR-TAF:

METAR-TAF

Flughäfen :

Flughafen Rarotonga

Rarotonga, Cookinseln

Breite: 21-12S, Länge: 159-49W, Höhe: 7 m

Beobachtung

Neuester Wetterbericht von vor 29 Minuten, um 05:00 UTC
Wind 2 kt aus Ost/Südost
Temperatur 24°C
Luftfeuchtigkeit 78%
Luftdruck 1012 hPa
Sichtweite 10 km oder mehr

METAR: NCRG 170500Z AUTO 11002KT 9999 BKN025/// 24/20 Q1012

Zeit: 19:29 (05:29 UTC)

Prognose

Neuester Wetterbericht von vor 6 Stunden und 14 Minuten, um 23:15 UTC
Gültige Prognose vom 17 um 00 UTC bis 17 um 24 UTC
Wind 13 kt aus Ost/Nordost
Sichtweite 10 km oder mehr
Leicht bewölkt in der Höhe von 2000 ft
Aufgelockert bewölkt in der Höhe von 2700 ft
Wahrscheinlichkeit 30% :
Zeitweise
vom 17 um 00 UTC bis 17 um 18 UTC
Sichtweite: 5000 m
Durchbrochene Bewölkung in der Höhe von 1500 ft
Regenschauer

TAF: NCRG 162315Z 1700/1724 06013KT 9999 FEW020 SCT027 PROB30 TEMPO 1700/1718 5000 SHRA BKN015

Wetterbeobachtungen und Prognosen von mehr als 4000 Flughäfen (METAR und TAF Bericht).

Die verfügbaren Stationen werden durch gelbe und rote Markierungen auf der Karte dargestellt.

Führen Sie die Maus auf sie, um den Namen der Station zu sehen.

Darauf klicken, um die Beobachtung von Wetterbeobachtungen und Prognosen zu sehen.

Um die Karte zu ändern : klicken Sie auf den grünen Tasten mit einem schwarzen Kreuz Zum Vergrößern, auf den grünen Button mit einem Gedankenstrich zu verkleinern, oder auf die grünen Pfeile für benachbarte Karten.


METAR-TAF: